createdAt,value
2017-11-26T00:00:35.681Z,4.90
2017-11-26T00:01:35.670Z,5.20
2017-11-26T00:02:35.665Z,5.40
2017-11-26T00:03:35.656Z,5.10
2017-11-26T00:04:35.648Z,5.10
2017-11-26T00:05:35.640Z,4.80
2017-11-26T00:06:35.634Z,5.30
2017-11-26T00:07:35.625Z,5.50
2017-11-26T00:08:35.618Z,5.10
2017-11-26T00:09:35.611Z,5.10
2017-11-26T00:10:35.601Z,5.20
2017-11-26T00:11:35.594Z,5.30
2017-11-26T00:12:35.587Z,5.70
2017-11-26T00:13:35.577Z,5.60
2017-11-26T00:14:35.573Z,5.30
2017-11-26T00:15:35.566Z,5.20
2017-11-26T00:16:35.557Z,5.40
2017-11-26T00:17:35.548Z,5.40
2017-11-26T00:18:35.542Z,6.00
2017-11-26T00:19:35.535Z,5.90
2017-11-26T00:20:35.526Z,5.80
2017-11-26T00:21:35.519Z,5.70
2017-11-26T00:22:35.511Z,6.10
2017-11-26T00:23:35.500Z,5.80
2017-11-26T00:24:35.494Z,5.50
2017-11-26T00:25:35.487Z,5.90
2017-11-26T00:26:35.482Z,5.90
2017-11-26T00:27:35.473Z,5.70
2017-11-26T00:28:35.465Z,5.70
2017-11-26T00:29:35.456Z,5.70
2017-11-26T00:30:35.449Z,6.00
2017-11-26T00:31:35.442Z,6.20
2017-11-26T00:32:35.435Z,6.10
2017-11-26T00:33:35.427Z,5.80
2017-11-26T00:34:35.418Z,6.00
2017-11-26T00:35:35.414Z,5.80
2017-11-26T00:36:35.404Z,6.10
2017-11-26T00:37:35.396Z,5.60
2017-11-26T00:38:35.389Z,6.00
2017-11-26T00:39:35.382Z,5.80
2017-11-26T00:40:35.378Z,5.80
2017-11-26T00:41:35.365Z,5.70
2017-11-26T00:42:35.358Z,5.90
2017-11-26T00:43:35.370Z,6.00
2017-11-26T00:44:35.343Z,6.30
2017-11-26T00:45:35.338Z,6.10
2017-11-26T00:46:35.325Z,6.00
2017-11-26T00:47:35.319Z,6.40
2017-11-26T00:48:35.312Z,6.20
2017-11-26T00:49:35.303Z,6.40
2017-11-26T00:50:35.299Z,6.20
2017-11-26T00:51:35.290Z,6.20
2017-11-26T00:52:35.281Z,5.80
2017-11-26T00:53:35.275Z,6.00
2017-11-26T00:54:35.266Z,5.60
2017-11-26T00:55:35.257Z,5.70
2017-11-26T00:56:35.249Z,5.40
2017-11-26T00:57:35.242Z,5.40
2017-11-26T00:58:35.235Z,5.40
2017-11-26T00:59:35.233Z,5.60
2017-11-26T01:00:35.219Z,5.70
2017-11-26T01:01:35.210Z,5.90
2017-11-26T01:02:35.205Z,6.30
2017-11-26T01:03:35.197Z,6.60
2017-11-26T01:04:35.188Z,6.20
2017-11-26T01:05:35.182Z,6.20
2017-11-26T01:06:35.173Z,6.80
2017-11-26T01:07:35.164Z,6.30
2017-11-26T01:08:35.170Z,5.90
2017-11-26T01:09:35.143Z,6.40
2017-11-26T01:10:35.134Z,6.10
2017-11-26T01:11:35.133Z,6.90
2017-11-26T01:12:35.126Z,7.10
2017-11-26T01:13:35.118Z,6.50
2017-11-26T01:14:35.112Z,6.20
2017-11-26T01:15:35.101Z,5.70
2017-11-26T01:16:35.097Z,5.40
2017-11-26T01:17:35.087Z,5.60
2017-11-26T01:18:35.079Z,5.70
2017-11-26T01:19:35.074Z,5.90
2017-11-26T01:20:35.063Z,5.90
2017-11-26T01:21:35.053Z,5.20
2017-11-26T01:22:35.047Z,5.80
2017-11-26T01:23:35.041Z,5.30
2017-11-26T01:24:35.032Z,5.50
2017-11-26T01:25:35.023Z,5.10
2017-11-26T01:26:35.017Z,5.60
2017-11-26T01:27:35.009Z,6.10
2017-11-26T01:28:35.000Z,6.10
2017-11-26T01:29:34.990Z,5.50
2017-11-26T01:30:34.987Z,5.70
2017-11-26T01:31:34.977Z,5.00
2017-11-26T01:32:34.978Z,5.50
2017-11-26T01:33:34.959Z,5.60
2017-11-26T01:34:34.949Z,4.90
2017-11-26T01:35:34.946Z,4.80
2017-11-26T01:36:34.941Z,5.10
2017-11-26T01:37:34.931Z,5.10
2017-11-26T01:38:34.927Z,5.30
2017-11-26T01:39:34.926Z,5.30
2017-11-26T01:40:34.908Z,5.30
2017-11-26T01:41:34.905Z,5.40
2017-11-26T01:42:34.891Z,5.20
2017-11-26T01:43:34.884Z,5.10
2017-11-26T01:44:34.876Z,4.90
2017-11-26T01:45:34.865Z,5.30
2017-11-26T01:46:34.859Z,4.90
2017-11-26T01:47:34.854Z,5.20
2017-11-26T01:48:34.844Z,5.30
2017-11-26T01:49:34.836Z,4.80
2017-11-26T01:50:34.838Z,5.10
2017-11-26T01:51:34.818Z,5.10
2017-11-26T01:52:34.810Z,4.80
2017-11-26T01:53:34.807Z,4.80
2017-11-26T01:54:34.798Z,5.30
2017-11-26T01:55:34.789Z,5.40
2017-11-26T01:56:34.781Z,5.30
2017-11-26T01:57:34.770Z,5.10
2017-11-26T01:58:34.767Z,5.10
2017-11-26T01:59:34.759Z,4.90
2017-11-26T02:00:34.753Z,5.20
2017-11-26T02:01:34.737Z,5.30
2017-11-26T02:02:34.734Z,5.20
2017-11-26T02:03:34.733Z,5.50
2017-11-26T02:04:34.721Z,5.20
2017-11-26T02:05:34.710Z,5.30
2017-11-26T02:06:34.702Z,5.10
2017-11-26T02:07:34.693Z,5.10
2017-11-26T02:08:34.687Z,5.50
2017-11-26T02:09:34.679Z,5.30
2017-11-26T02:10:34.673Z,5.00
2017-11-26T02:11:34.662Z,5.30
2017-11-26T02:12:34.654Z,5.70
2017-11-26T02:13:34.646Z,5.50
2017-11-26T02:14:34.638Z,5.60
2017-11-26T02:15:34.633Z,5.00
2017-11-26T02:16:34.625Z,5.20
2017-11-26T02:17:34.612Z,5.30
2017-11-26T02:18:34.607Z,5.40
2017-11-26T02:19:34.600Z,5.50
2017-11-26T02:20:34.591Z,4.80
2017-11-26T02:21:34.581Z,5.50
2017-11-26T02:22:34.573Z,5.60
2017-11-26T02:23:34.565Z,5.40
2017-11-26T02:24:34.558Z,5.50
2017-11-26T02:25:34.550Z,6.10
2017-11-26T02:26:34.544Z,5.60
2017-11-26T02:27:34.535Z,5.70
2017-11-26T02:28:34.527Z,5.70
2017-11-26T02:29:34.528Z,5.50
2017-11-26T02:30:34.509Z,5.80
2017-11-26T02:31:34.502Z,5.20
2017-11-26T02:32:34.493Z,5.50
2017-11-26T02:33:34.489Z,4.90
2017-11-26T02:34:34.477Z,5.20
2017-11-26T02:35:34.492Z,5.30
2017-11-26T02:36:34.464Z,5.50
2017-11-26T02:37:34.461Z,5.20
2017-11-26T02:38:34.450Z,5.40
2017-11-26T02:39:34.428Z,5.70
2017-11-26T02:40:34.427Z,6.10
2017-11-26T02:41:34.428Z,5.00
2017-11-26T02:42:34.416Z,5.20
2017-11-26T02:43:34.406Z,5.20
2017-11-26T02:44:34.408Z,5.30
2017-11-26T02:45:34.404Z,5.30
2017-11-26T02:46:34.386Z,5.30
2017-11-26T02:47:34.374Z,5.00
2017-11-26T02:48:34.367Z,5.70
2017-11-26T02:49:34.354Z,5.70
2017-11-26T02:50:34.349Z,5.00
2017-11-26T02:51:34.343Z,5.20
2017-11-26T02:52:34.347Z,5.10
2017-11-26T02:53:34.326Z,5.40
2017-11-26T02:54:34.317Z,5.00
2017-11-26T02:55:34.311Z,5.30
2017-11-26T02:56:34.303Z,5.30
2017-11-26T02:57:34.292Z,5.00
2017-11-26T02:58:34.290Z,5.40
2017-11-26T02:59:34.285Z,5.40
2017-11-26T03:00:34.281Z,5.70
2017-11-26T03:01:34.262Z,5.40
2017-11-26T03:02:34.255Z,5.50
2017-11-26T03:03:34.248Z,5.30
2017-11-26T03:04:34.237Z,5.40
2017-11-26T03:05:34.232Z,5.60
2017-11-26T03:06:34.226Z,5.70
2017-11-26T03:07:34.219Z,5.40
2017-11-26T03:08:34.208Z,6.00
2017-11-26T03:09:34.199Z,5.70
2017-11-26T03:10:34.192Z,5.40
2017-11-26T03:11:34.182Z,5.80
2017-11-26T03:12:34.177Z,5.80
2017-11-26T03:13:34.166Z,6.00
2017-11-26T03:14:34.157Z,5.80
2017-11-26T03:15:34.151Z,5.70
2017-11-26T03:16:34.148Z,5.50
2017-11-26T03:17:34.136Z,6.10
2017-11-26T03:18:34.124Z,5.50
2017-11-26T03:19:34.119Z,5.80
2017-11-26T03:20:34.119Z,5.60
2017-11-26T03:21:34.103Z,5.10
2017-11-26T03:22:34.098Z,5.90
2017-11-26T03:23:34.089Z,5.10
2017-11-26T03:24:34.077Z,5.20
2017-11-26T03:25:34.073Z,5.20
2017-11-26T03:26:34.061Z,5.30
2017-11-26T03:27:34.054Z,5.00
2017-11-26T03:28:34.045Z,5.50
2017-11-26T03:29:34.045Z,5.20
2017-11-26T03:30:34.034Z,5.40
2017-11-26T03:31:34.022Z,4.90
2017-11-26T03:32:34.013Z,5.00
2017-11-26T03:33:34.005Z,5.10
2017-11-26T03:34:33.997Z,4.60
2017-11-26T03:35:33.990Z,5.00
2017-11-26T03:36:33.980Z,5.40
2017-11-26T03:37:33.979Z,5.30
2017-11-26T03:38:33.965Z,5.00
2017-11-26T03:39:33.961Z,4.90
2017-11-26T03:40:33.951Z,5.10
2017-11-26T03:41:33.940Z,4.80
2017-11-26T03:42:33.935Z,5.20
2017-11-26T03:43:33.925Z,4.90
2017-11-26T03:44:33.919Z,4.70
2017-11-26T03:45:33.910Z,5.30
2017-11-26T03:46:33.900Z,5.10
2017-11-26T03:47:33.895Z,5.30
2017-11-26T03:48:33.886Z,5.00
2017-11-26T03:49:33.882Z,5.10
2017-11-26T03:50:33.871Z,5.70
2017-11-26T03:51:33.864Z,4.60
2017-11-26T03:52:33.855Z,4.80
2017-11-26T03:53:33.853Z,5.30
2017-11-26T03:54:33.842Z,4.90
2017-11-26T03:55:33.834Z,4.70
2017-11-26T03:56:33.825Z,5.00
2017-11-26T03:57:33.815Z,4.90
2017-11-26T03:58:33.807Z,4.70
2017-11-26T03:59:33.805Z,5.00
2017-11-26T04:00:33.797Z,5.00
2017-11-26T04:01:33.785Z,4.70
2017-11-26T04:02:33.778Z,4.90
2017-11-26T04:03:33.769Z,4.90
2017-11-26T04:04:33.761Z,4.40
2017-11-26T04:05:33.756Z,4.80
2017-11-26T04:06:33.747Z,5.10
2017-11-26T04:07:33.747Z,4.80
2017-11-26T04:08:33.731Z,4.80
2017-11-26T04:09:33.724Z,5.10
2017-11-26T04:10:33.715Z,5.00
2017-11-26T04:11:33.708Z,4.50
2017-11-26T04:12:33.700Z,4.70
2017-11-26T04:13:33.691Z,5.00
2017-11-26T04:14:33.683Z,4.80
2017-11-26T04:15:33.676Z,5.20
2017-11-26T04:16:33.676Z,4.60
2017-11-26T04:17:33.660Z,4.80
2017-11-26T04:18:33.651Z,4.60
2017-11-26T04:19:33.644Z,5.20
2017-11-26T04:20:33.638Z,5.10
2017-11-26T04:21:33.630Z,4.70
2017-11-26T04:22:33.621Z,5.00
2017-11-26T04:23:33.630Z,5.10
2017-11-26T04:24:33.607Z,5.10
2017-11-26T04:25:33.598Z,5.30
2017-11-26T04:26:33.589Z,4.80
2017-11-26T04:27:33.582Z,5.70
2017-11-26T04:28:33.582Z,5.20
2017-11-26T04:29:33.566Z,5.00
2017-11-26T04:30:33.563Z,5.20
2017-11-26T04:31:33.552Z,5.70
2017-11-26T04:32:33.543Z,5.50
2017-11-26T04:33:33.534Z,5.10
2017-11-26T04:34:33.529Z,5.90
2017-11-26T04:35:33.523Z,5.20
2017-11-26T04:36:33.512Z,5.20
2017-11-26T04:37:33.506Z,5.10
2017-11-26T04:38:33.516Z,5.40
2017-11-26T04:39:33.488Z,5.00
2017-11-26T04:40:33.483Z,5.10
2017-11-26T04:41:33.473Z,5.20
2017-11-26T04:42:33.467Z,5.00
2017-11-26T04:43:33.458Z,5.60
2017-11-26T04:44:33.452Z,5.30
2017-11-26T04:45:33.442Z,5.10
2017-11-26T04:46:33.433Z,5.20
2017-11-26T04:47:33.427Z,6.00
2017-11-26T04:48:33.421Z,5.20
2017-11-26T04:49:33.410Z,4.80
2017-11-26T04:50:33.406Z,5.70
2017-11-26T04:51:33.395Z,5.30
2017-11-26T04:52:33.397Z,4.70
2017-11-26T04:53:33.379Z,5.00
2017-11-26T04:54:33.375Z,4.80
2017-11-26T04:55:33.364Z,5.10
2017-11-26T04:56:33.360Z,5.20
2017-11-26T04:57:33.348Z,4.90
2017-11-26T04:58:33.340Z,4.80
2017-11-26T04:59:33.366Z,5.10
2017-11-26T05:00:33.327Z,5.00
2017-11-26T05:01:33.318Z,5.50
2017-11-26T05:02:33.313Z,4.90
2017-11-26T05:03:33.304Z,5.80
2017-11-26T05:04:33.295Z,5.20
2017-11-26T05:05:33.287Z,5.30
2017-11-26T05:06:33.280Z,5.00
2017-11-26T05:07:33.273Z,5.20
2017-11-26T05:08:33.264Z,5.40
2017-11-26T05:09:33.257Z,5.40
2017-11-26T05:10:33.251Z,5.40
2017-11-26T05:11:33.241Z,5.70
2017-11-26T05:12:33.234Z,5.20
2017-11-26T05:13:33.225Z,5.20
2017-11-26T05:14:33.218Z,5.10
2017-11-26T05:15:33.212Z,5.60
2017-11-26T05:16:33.201Z,5.40
2017-11-26T05:17:33.195Z,5.70
2017-11-26T05:18:33.192Z,5.90
2017-11-26T05:19:33.179Z,6.00
2017-11-26T05:20:33.173Z,5.40
2017-11-26T05:21:33.167Z,5.60
2017-11-26T05:22:33.155Z,5.70
2017-11-26T05:23:33.149Z,6.10
2017-11-26T05:24:33.146Z,5.60
2017-11-26T05:25:33.132Z,5.70
2017-11-26T05:26:33.124Z,5.40
2017-11-26T05:27:33.126Z,5.90
2017-11-26T05:28:33.111Z,6.00
2017-11-26T05:29:33.131Z,5.70
2017-11-26T05:30:33.095Z,5.70
2017-11-26T05:31:33.088Z,5.70
2017-11-26T05:32:33.083Z,5.60
2017-11-26T05:33:33.069Z,5.90
2017-11-26T05:34:33.063Z,5.90
2017-11-26T05:35:33.057Z,6.10
2017-11-26T05:36:33.049Z,5.70
2017-11-26T05:37:33.040Z,6.70
2017-11-26T05:38:33.035Z,6.00
2017-11-26T05:39:33.029Z,5.90
2017-11-26T05:40:33.017Z,6.10
2017-11-26T05:41:33.008Z,5.80
2017-11-26T05:42:33.009Z,5.60
2017-11-26T05:43:32.995Z,5.60
2017-11-26T05:44:32.996Z,5.60
2017-11-26T05:45:32.979Z,5.10
2017-11-26T05:46:32.970Z,5.70
2017-11-26T05:47:32.963Z,6.00
2017-11-26T05:48:32.953Z,5.50
2017-11-26T05:49:32.947Z,6.60
2017-11-26T05:50:32.941Z,5.70
2017-11-26T05:51:32.936Z,6.50
2017-11-26T05:52:32.927Z,5.60
2017-11-26T05:53:32.929Z,5.70
2017-11-26T05:54:32.919Z,5.50
2017-11-26T05:55:32.903Z,5.60
2017-11-26T05:56:32.899Z,6.00
2017-11-26T05:57:32.911Z,5.70
2017-11-26T05:58:32.890Z,5.90
2017-11-26T05:59:32.861Z,5.50
2017-11-26T06:00:32.860Z,5.30
2017-11-26T06:01:32.854Z,4.80
2017-11-26T06:02:32.835Z,5.40
2017-11-26T06:03:32.839Z,5.10
2017-11-26T06:04:32.826Z,5.20
2017-11-26T06:05:32.820Z,5.10
2017-11-26T06:06:32.810Z,5.40
2017-11-26T06:07:32.804Z,4.80
2017-11-26T06:08:32.798Z,4.70
2017-11-26T06:09:32.791Z,4.90
2017-11-26T06:10:32.783Z,4.80
2017-11-26T06:11:32.771Z,5.10
2017-11-26T06:12:32.767Z,4.70
2017-11-26T06:13:32.757Z,5.40
2017-11-26T06:14:32.759Z,5.30
2017-11-26T06:15:32.755Z,5.00
2017-11-26T06:16:32.756Z,4.80
2017-11-26T06:17:32.719Z,4.90
2017-11-26T06:18:32.707Z,5.10
2017-11-26T06:19:32.706Z,5.20
2017-11-26T06:20:32.714Z,4.90
2017-11-26T06:21:32.696Z,4.90
2017-11-26T06:22:32.690Z,4.90
2017-11-26T06:23:32.676Z,4.80
2017-11-26T06:24:32.670Z,4.90
2017-11-26T06:25:32.662Z,4.70
2017-11-26T06:26:32.660Z,4.60
2017-11-26T06:27:32.646Z,4.70
2017-11-26T06:28:32.637Z,4.90
2017-11-26T06:29:32.633Z,4.50
2017-11-26T06:30:32.637Z,4.80
2017-11-26T06:31:32.638Z,4.60
2017-11-26T06:32:32.605Z,4.40
2017-11-26T06:33:32.599Z,4.70
2017-11-26T06:34:32.589Z,4.50
2017-11-26T06:35:32.583Z,4.70
2017-11-26T06:36:32.590Z,4.20
2017-11-26T06:37:32.565Z,5.10
2017-11-26T06:38:32.574Z,4.60
2017-11-26T06:39:32.553Z,4.30
2017-11-26T06:40:32.545Z,4.80
2017-11-26T06:41:32.543Z,4.90
2017-11-26T06:42:32.529Z,4.70
2017-11-26T06:43:32.521Z,5.00
2017-11-26T06:44:32.513Z,4.40
2017-11-26T06:45:32.505Z,4.60
2017-11-26T06:46:32.511Z,5.10
2017-11-26T06:47:32.487Z,4.70
2017-11-26T06:48:32.483Z,4.50
2017-11-26T06:49:32.481Z,5.20
2017-11-26T06:50:32.465Z,5.30
2017-11-26T06:51:32.456Z,5.50
2017-11-26T06:52:32.450Z,5.10
2017-11-26T06:53:32.440Z,4.60
2017-11-26T06:54:32.434Z,5.10
2017-11-26T06:55:32.427Z,5.50
2017-11-26T06:56:32.419Z,5.20
2017-11-26T06:57:32.414Z,5.20
2017-11-26T06:58:32.404Z,5.70
2017-11-26T06:59:32.397Z,5.30
2017-11-26T07:00:32.389Z,5.20
2017-11-26T07:01:32.381Z,5.30
2017-11-26T07:02:32.371Z,5.50
2017-11-26T07:03:32.364Z,4.70
2017-11-26T07:04:32.359Z,5.10
2017-11-26T07:05:32.350Z,5.50
2017-11-26T07:06:32.341Z,5.40
2017-11-26T07:07:32.334Z,5.50
2017-11-26T07:08:32.327Z,5.00
2017-11-26T07:09:32.318Z,6.00
2017-11-26T07:10:32.310Z,5.40
2017-11-26T07:11:32.312Z,5.00
2017-11-26T07:12:32.297Z,5.40
2017-11-26T07:13:32.293Z,4.70
2017-11-26T07:14:32.284Z,5.10
2017-11-26T07:15:32.272Z,4.90
2017-11-26T07:16:32.263Z,5.00
2017-11-26T07:17:32.254Z,5.10
2017-11-26T07:18:32.247Z,5.20
2017-11-26T07:19:32.239Z,5.00
2017-11-26T07:20:32.234Z,5.20
2017-11-26T07:21:32.227Z,5.10
2017-11-26T07:22:32.216Z,4.90
2017-11-26T07:23:32.210Z,5.00
2017-11-26T07:24:32.203Z,5.20
2017-11-26T07:25:32.195Z,5.60
2017-11-26T07:26:32.185Z,5.00
2017-11-26T07:27:32.178Z,5.20
2017-11-26T07:28:32.175Z,5.10
2017-11-26T07:29:32.162Z,5.70
2017-11-26T07:30:32.155Z,5.40
2017-11-26T07:31:32.149Z,5.50
2017-11-26T07:32:32.142Z,5.70
2017-11-26T07:33:32.134Z,5.30
2017-11-26T07:34:32.127Z,5.60
2017-11-26T07:35:32.116Z,5.50
2017-11-26T07:36:32.113Z,5.50
2017-11-26T07:37:32.105Z,5.10
2017-11-26T07:38:32.094Z,5.20
2017-11-26T07:39:32.094Z,5.40
2017-11-26T07:40:32.080Z,5.40
2017-11-26T07:41:32.071Z,5.30
2017-11-26T07:42:32.061Z,6.00
2017-11-26T07:43:32.059Z,5.20
2017-11-26T07:44:32.050Z,5.40
2017-11-26T07:45:32.043Z,5.60
2017-11-26T07:46:32.034Z,5.60
2017-11-26T07:47:32.028Z,5.60
2017-11-26T07:48:32.019Z,5.20
2017-11-26T07:49:32.012Z,5.70
2017-11-26T07:50:32.004Z,5.30
2017-11-26T07:51:31.999Z,5.50
2017-11-26T07:52:31.980Z,5.90
2017-11-26T07:53:31.979Z,6.00
2017-11-26T07:54:31.973Z,5.50
2017-11-26T07:55:31.966Z,5.40
2017-11-26T07:56:31.958Z,5.20
2017-11-26T07:57:31.949Z,5.40
2017-11-26T07:58:31.942Z,5.70
2017-11-26T07:59:31.934Z,5.10
2017-11-26T08:00:31.926Z,5.10
2017-11-26T08:01:31.921Z,5.30
2017-11-26T08:02:31.912Z,4.90
2017-11-26T08:03:31.905Z,4.50
2017-11-26T08:04:31.899Z,5.20
2017-11-26T08:05:31.891Z,6.00
2017-11-26T08:06:31.881Z,4.80
2017-11-26T08:07:31.873Z,5.00
2017-11-26T08:08:31.868Z,5.30
2017-11-26T08:09:31.859Z,5.30
2017-11-26T08:10:31.853Z,5.30
2017-11-26T08:11:31.842Z,5.00
2017-11-26T08:12:31.838Z,5.00
2017-11-26T08:13:31.830Z,5.00
2017-11-26T08:14:31.822Z,5.00
2017-11-26T08:15:31.811Z,4.90
2017-11-26T08:16:31.808Z,4.80
2017-11-26T08:17:31.799Z,5.00
2017-11-26T08:18:31.789Z,4.80
2017-11-26T08:19:31.786Z,5.20
2017-11-26T08:20:31.777Z,5.60
2017-11-26T08:21:31.769Z,4.90
2017-11-26T08:22:31.772Z,4.90
2017-11-26T08:23:31.756Z,4.50
2017-11-26T08:24:31.746Z,5.10
2017-11-26T08:25:31.739Z,4.50
2017-11-26T08:26:31.732Z,4.50
2017-11-26T08:27:31.724Z,4.90
2017-11-26T08:28:31.722Z,5.10
2017-11-26T08:29:31.709Z,5.30
2017-11-26T08:30:31.700Z,4.90
2017-11-26T08:31:31.698Z,5.30
2017-11-26T08:32:31.688Z,5.20
2017-11-26T08:33:31.676Z,5.50
2017-11-26T08:34:31.672Z,5.20
2017-11-26T08:35:31.674Z,5.40
2017-11-26T08:36:31.659Z,5.30
2017-11-26T08:37:31.652Z,5.70
2017-11-26T08:38:31.642Z,4.30
2017-11-26T08:39:31.642Z,5.20
2017-11-26T08:40:31.628Z,5.00
2017-11-26T08:41:31.620Z,4.80
2017-11-26T08:42:31.615Z,4.90
2017-11-26T08:43:31.606Z,4.80
2017-11-26T08:44:31.600Z,4.60
2017-11-26T08:45:31.592Z,4.80
2017-11-26T08:46:31.584Z,4.80
2017-11-26T08:47:31.578Z,4.60
2017-11-26T08:48:31.572Z,4.70
2017-11-26T08:49:31.564Z,5.80
2017-11-26T08:50:31.555Z,4.90
2017-11-26T08:51:31.550Z,4.90
2017-11-26T08:52:31.542Z,5.20
2017-11-26T08:53:31.535Z,4.50
2017-11-26T08:54:31.527Z,4.90
2017-11-26T08:55:31.519Z,4.70
2017-11-26T08:56:31.512Z,4.80
2017-11-26T08:57:31.504Z,4.60
2017-11-26T08:58:31.496Z,4.60
2017-11-26T08:59:31.493Z,4.90
2017-11-26T09:00:31.483Z,4.90
2017-11-26T09:01:31.475Z,4.50
2017-11-26T09:02:31.464Z,4.50
2017-11-26T09:03:31.461Z,4.30
2017-11-26T09:04:31.453Z,4.60
2017-11-26T09:05:31.445Z,5.10
2017-11-26T09:06:31.436Z,4.90
2017-11-26T09:07:31.431Z,4.70
2017-11-26T09:08:31.424Z,4.20
2017-11-26T09:09:31.415Z,4.60
2017-11-26T09:10:31.406Z,4.70
2017-11-26T09:11:31.401Z,4.90
2017-11-26T09:12:31.396Z,4.70
2017-11-26T09:13:31.384Z,4.70
2017-11-26T09:14:31.377Z,4.90
2017-11-26T09:15:31.368Z,4.70
2017-11-26T09:16:31.362Z,5.20
2017-11-26T09:17:31.354Z,4.90
2017-11-26T09:18:31.348Z,5.20
2017-11-26T09:19:31.339Z,5.20
2017-11-26T09:20:31.331Z,6.10
2017-11-26T09:21:31.327Z,5.60
2017-11-26T09:22:31.317Z,6.20
2017-11-26T09:23:31.311Z,5.60
2017-11-26T09:24:31.302Z,5.60
2017-11-26T09:25:31.296Z,5.60
2017-11-26T09:26:31.282Z,5.10
2017-11-26T09:27:31.278Z,5.10
2017-11-26T09:28:31.281Z,4.70
2017-11-26T09:29:31.266Z,5.20
2017-11-26T09:30:31.255Z,5.80
2017-11-26T09:31:31.252Z,5.80
2017-11-26T09:32:31.244Z,6.00
2017-11-26T09:33:31.236Z,5.30
2017-11-26T09:34:31.231Z,5.60
2017-11-26T09:35:31.223Z,5.60
2017-11-26T09:36:31.214Z,5.50
2017-11-26T09:37:31.208Z,5.20
2017-11-26T09:38:31.199Z,5.20
2017-11-26T09:39:31.195Z,5.30
2017-11-26T09:40:31.197Z,4.70
2017-11-26T09:41:31.178Z,5.00
2017-11-26T09:42:31.172Z,4.90
2017-11-26T09:43:31.164Z,4.80
2017-11-26T09:44:31.159Z,4.80
2017-11-26T09:45:31.152Z,4.60
2017-11-26T09:46:31.141Z,4.80
2017-11-26T09:47:31.134Z,4.90
2017-11-26T09:48:31.131Z,4.90
2017-11-26T09:49:31.120Z,4.80
2017-11-26T09:50:31.108Z,5.40
2017-11-26T09:51:31.106Z,5.40
2017-11-26T09:52:31.100Z,5.00
2017-11-26T09:53:31.095Z,5.20
2017-11-26T09:54:31.085Z,5.00
2017-11-26T09:55:31.077Z,4.80
2017-11-26T09:56:31.071Z,4.70
2017-11-26T09:57:31.061Z,4.70
2017-11-26T09:58:31.058Z,4.80
2017-11-26T09:59:31.046Z,4.50
2017-11-26T10:00:31.042Z,5.00
2017-11-26T10:01:31.032Z,4.80
2017-11-26T10:02:31.025Z,5.00
2017-11-26T10:03:31.019Z,4.80
2017-11-26T10:04:31.014Z,4.60
2017-11-26T10:05:31.004Z,5.40
2017-11-26T10:06:30.998Z,4.80
2017-11-26T10:07:30.989Z,5.10
2017-11-26T10:08:30.982Z,4.50
2017-11-26T10:09:30.974Z,4.50
2017-11-26T10:10:30.971Z,4.20
2017-11-26T10:11:30.965Z,4.00
2017-11-26T10:12:30.956Z,4.60
2017-11-26T10:13:30.946Z,4.10
2017-11-26T10:14:30.939Z,4.20
2017-11-26T10:15:30.932Z,4.70
2017-11-26T10:16:30.928Z,4.20
2017-11-26T10:17:30.918Z,4.20
2017-11-26T10:18:30.909Z,4.10
2017-11-26T10:19:30.902Z,3.90
2017-11-26T10:20:30.893Z,4.30
2017-11-26T10:21:30.887Z,3.50
2017-11-26T10:22:30.880Z,3.80
2017-11-26T10:23:30.873Z,4.00
2017-11-26T10:24:30.863Z,4.00
2017-11-26T10:25:30.855Z,3.50
2017-11-26T10:26:30.853Z,4.30
2017-11-26T10:27:30.843Z,3.70
2017-11-26T10:28:30.836Z,3.70
2017-11-26T10:29:30.830Z,3.60
2017-11-26T10:30:30.823Z,3.40
2017-11-26T10:31:30.822Z,3.60
2017-11-26T10:32:30.808Z,4.00
2017-11-26T10:33:30.799Z,3.60
2017-11-26T10:34:30.792Z,3.90
2017-11-26T10:35:30.787Z,3.90
2017-11-26T10:36:30.779Z,4.10
2017-11-26T10:37:30.772Z,3.60
2017-11-26T10:38:30.766Z,3.60
2017-11-26T10:39:30.757Z,3.90
2017-11-26T10:40:30.750Z,3.90
2017-11-26T10:41:30.742Z,3.60
2017-11-26T10:42:30.734Z,4.20
2017-11-26T10:43:30.725Z,4.20
2017-11-26T10:44:30.725Z,4.20
2017-11-26T10:45:30.711Z,3.70
2017-11-26T10:46:30.707Z,3.90
2017-11-26T10:47:30.703Z,4.20
2017-11-26T10:48:30.691Z,4.00
2017-11-26T10:49:30.685Z,4.20
2017-11-26T10:50:30.676Z,4.10
2017-11-26T10:51:30.676Z,4.00
2017-11-26T10:52:30.666Z,4.30
2017-11-26T10:53:30.654Z,4.20
2017-11-26T10:54:30.648Z,4.00
2017-11-26T10:55:30.642Z,4.10
2017-11-26T10:56:30.635Z,4.40
2017-11-26T10:57:30.669Z,4.20
2017-11-26T10:58:30.620Z,4.10
2017-11-26T10:59:30.613Z,3.90
2017-11-26T11:00:30.606Z,4.20
2017-11-26T11:01:30.597Z,3.80
2017-11-26T11:02:30.592Z,4.30
2017-11-26T11:03:30.585Z,3.70
2017-11-26T11:04:30.581Z,3.90
2017-11-26T11:05:30.572Z,3.90
2017-11-26T11:06:30.563Z,4.00
2017-11-26T11:07:30.557Z,3.90
2017-11-26T11:08:30.550Z,3.70
2017-11-26T11:09:30.544Z,3.70
2017-11-26T11:10:30.535Z,4.20
2017-11-26T11:11:30.530Z,4.20
2017-11-26T11:12:30.525Z,4.00
2017-11-26T11:13:30.514Z,3.40
2017-11-26T11:14:30.507Z,3.40
2017-11-26T11:15:30.500Z,3.90
2017-11-26T11:16:30.492Z,3.40
2017-11-26T11:17:30.489Z,3.90
2017-11-26T11:18:30.479Z,3.60
2017-11-26T11:19:30.472Z,3.70
2017-11-26T11:20:30.464Z,3.30
2017-11-26T11:21:30.463Z,3.70
2017-11-26T11:22:30.450Z,3.40
2017-11-26T11:23:30.444Z,3.30
2017-11-26T11:24:30.437Z,3.90
2017-11-26T11:25:30.428Z,3.30
2017-11-26T11:26:30.424Z,3.60
2017-11-26T11:27:30.412Z,3.40
2017-11-26T11:28:30.405Z,3.70
2017-11-26T11:29:30.400Z,3.30
2017-11-26T11:30:30.395Z,3.30
2017-11-26T11:31:30.385Z,3.30
2017-11-26T11:32:30.377Z,3.30
2017-11-26T11:33:30.373Z,3.00
2017-11-26T11:34:30.364Z,3.30
2017-11-26T11:35:30.357Z,2.90
2017-11-26T11:36:30.350Z,3.60
2017-11-26T11:37:30.344Z,3.20
2017-11-26T11:38:30.338Z,3.40
2017-11-26T11:39:30.330Z,3.40
2017-11-26T11:40:30.333Z,3.00
2017-11-26T11:41:30.317Z,3.20
2017-11-26T11:42:30.306Z,3.40
2017-11-26T11:43:30.301Z,3.10
2017-11-26T11:44:30.295Z,3.40
2017-11-26T11:45:30.284Z,3.30
2017-11-26T11:46:30.279Z,3.40
2017-11-26T11:47:30.274Z,3.40
2017-11-26T11:48:30.265Z,3.60
2017-11-26T11:49:30.257Z,3.80
2017-11-26T11:50:30.252Z,3.40
2017-11-26T11:51:30.243Z,3.80
2017-11-26T11:52:30.244Z,3.70
2017-11-26T11:53:30.229Z,3.60
2017-11-26T11:54:30.221Z,3.20
2017-11-26T11:55:30.215Z,3.70
2017-11-26T11:56:30.207Z,3.30
2017-11-26T11:57:30.199Z,3.40
2017-11-26T11:58:30.195Z,3.70
2017-11-26T11:59:30.198Z,3.20
2017-11-26T12:00:30.179Z,3.60
2017-11-26T12:01:30.171Z,3.80
2017-11-26T12:02:30.165Z,4.10
2017-11-26T12:03:30.157Z,4.60
2017-11-26T12:04:30.149Z,4.10
2017-11-26T12:05:30.143Z,3.90
2017-11-26T12:06:30.135Z,4.30
2017-11-26T12:07:30.131Z,4.30
2017-11-26T12:08:30.122Z,3.60
2017-11-26T12:09:30.115Z,3.70
2017-11-26T12:10:30.110Z,3.70
2017-11-26T12:11:30.101Z,3.50
2017-11-26T12:12:30.096Z,4.00
2017-11-26T12:13:30.091Z,3.50
2017-11-26T12:14:30.080Z,3.40
2017-11-26T12:15:30.070Z,3.30
2017-11-26T12:16:30.086Z,3.50
2017-11-26T12:17:30.058Z,3.20
2017-11-26T12:18:30.051Z,3.50
2017-11-26T12:19:30.046Z,3.20
2017-11-26T12:20:30.037Z,3.70
2017-11-26T12:21:30.030Z,3.40
2017-11-26T12:22:30.022Z,3.70
2017-11-26T12:23:30.015Z,3.80
2017-11-26T12:24:30.014Z,3.60
2017-11-26T12:25:30.001Z,3.50
2017-11-26T12:26:29.992Z,4.00
2017-11-26T12:27:29.985Z,3.60
2017-11-26T12:28:29.979Z,3.80
2017-11-26T12:29:29.970Z,3.40
2017-11-26T12:30:29.965Z,4.00
2017-11-26T12:31:29.963Z,4.00
2017-11-26T12:32:29.948Z,3.70
2017-11-26T12:33:29.942Z,3.50
2017-11-26T12:34:29.941Z,4.00
2017-11-26T12:35:29.926Z,4.40
2017-11-26T12:36:29.920Z,4.20
2017-11-26T12:37:29.911Z,3.40
2017-11-26T12:38:29.905Z,3.60
2017-11-26T12:39:29.901Z,3.70
2017-11-26T12:40:29.890Z,4.00
2017-11-26T12:41:29.881Z,4.00
2017-11-26T12:42:29.878Z,4.20
2017-11-26T12:43:29.866Z,3.90
2017-11-26T12:44:29.857Z,3.80
2017-11-26T12:45:29.853Z,3.80
2017-11-26T12:46:29.840Z,4.30
2017-11-26T12:47:29.837Z,4.10
2017-11-26T12:48:29.831Z,4.60
2017-11-26T12:49:29.826Z,5.20
2017-11-26T12:50:29.817Z,4.70
2017-11-26T12:51:29.819Z,4.80
2017-11-26T12:52:29.807Z,4.80
2017-11-26T12:53:29.795Z,4.90
2017-11-26T12:54:29.789Z,5.00
2017-11-26T12:55:29.785Z,5.40
2017-11-26T12:56:29.776Z,4.80
2017-11-26T12:57:29.768Z,4.90
2017-11-26T12:58:29.763Z,4.80
2017-11-26T12:59:29.754Z,4.40
2017-11-26T13:00:29.748Z,4.50
2017-11-26T13:01:29.740Z,4.70
2017-11-26T13:02:29.732Z,4.60
2017-11-26T13:03:29.726Z,4.50
2017-11-26T13:04:29.717Z,4.80
2017-11-26T13:05:29.710Z,4.50
2017-11-26T13:06:29.704Z,4.50
2017-11-26T13:07:29.697Z,4.60
2017-11-26T13:08:29.693Z,4.60
2017-11-26T13:09:29.682Z,4.40
2017-11-26T13:10:29.672Z,4.20
2017-11-26T13:11:29.666Z,3.90
2017-11-26T13:12:29.661Z,4.30
2017-11-26T13:13:29.652Z,4.30
2017-11-26T13:14:29.645Z,4.50
2017-11-26T13:15:29.639Z,3.90
2017-11-26T13:16:29.630Z,4.40
2017-11-26T13:17:29.624Z,4.70
2017-11-26T13:18:29.616Z,4.30